sensor_id;sensor_type;location;lat;lon;timestamp;P1;durP1;ratioP1;P2;durP2;ratioP2
6999;SDS011;3540;53.242;10.408;2024-01-15T00:02:16;8.40;;;2.50;;
6999;SDS011;3540;53.242;10.408;2024-01-15T00:04:42;9.50;;;2.67;;
6999;SDS011;3540;53.242;10.408;2024-01-15T00:07:08;14.30;;;3.73;;
6999;SDS011;3540;53.242;10.408;2024-01-15T00:09:34;13.03;;;2.60;;
6999;SDS011;3540;53.242;10.408;2024-01-15T00:12:00;11.97;;;2.87;;
6999;SDS011;3540;53.242;10.408;2024-01-15T00:14:27;10.93;;;2.57;;
6999;SDS011;3540;53.242;10.408;2024-01-15T00:16:53;8.37;;;2.77;;
6999;SDS011;3540;53.242;10.408;2024-01-15T00:19:20;12.93;;;2.70;;
6999;SDS011;3540;53.242;10.408;2024-01-15T00:21:46;10.77;;;3.00;;
6999;SDS011;3540;53.242;10.408;2024-01-15T00:24:12;7.83;;;2.40;;
6999;SDS011;3540;53.242;10.408;2024-01-15T00:26:38;8.80;;;2.60;;
6999;SDS011;3540;53.242;10.408;2024-01-15T00:29:06;10.43;;;2.70;;
6999;SDS011;3540;53.242;10.408;2024-01-15T00:31:32;12.83;;;2.73;;
6999;SDS011;3540;53.242;10.408;2024-01-15T00:33:58;17.60;;;3.33;;
6999;SDS011;3540;53.242;10.408;2024-01-15T00:36:23;12.00;;;2.63;;
6999;SDS011;3540;53.242;10.408;2024-01-15T00:38:49;10.27;;;2.30;;
6999;SDS011;3540;53.242;10.408;2024-01-15T00:41:14;11.20;;;2.70;;
6999;SDS011;3540;53.242;10.408;2024-01-15T00:43:40;10.00;;;2.73;;
6999;SDS011;3540;53.242;10.408;2024-01-15T00:46:06;11.60;;;3.10;;
6999;SDS011;3540;53.242;10.408;2024-01-15T00:48:32;12.93;;;2.43;;
6999;SDS011;3540;53.242;10.408;2024-01-15T00:50:58;14.37;;;3.17;;
6999;SDS011;3540;53.242;10.408;2024-01-15T00:53:23;14.13;;;2.73;;
6999;SDS011;3540;53.242;10.408;2024-01-15T00:55:50;12.03;;;2.50;;
6999;SDS011;3540;53.242;10.408;2024-01-15T00:58:16;16.20;;;3.00;;
6999;SDS011;3540;53.242;10.408;2024-01-15T01:00:42;11.87;;;2.50;;
6999;SDS011;3540;53.242;10.408;2024-01-15T01:03:08;16.67;;;3.00;;
6999;SDS011;3540;53.242;10.408;2024-01-15T01:05:34;16.77;;;3.33;;
6999;SDS011;3540;53.242;10.408;2024-01-15T01:07:59;9.90;;;2.20;;
6999;SDS011;3540;53.242;10.408;2024-01-15T01:10:25;11.33;;;2.03;;
6999;SDS011;3540;53.242;10.408;2024-01-15T01:12:51;14.20;;;3.00;;
6999;SDS011;3540;53.242;10.408;2024-01-15T01:15:17;8.83;;;1.90;;
6999;SDS011;3540;53.242;10.408;2024-01-15T01:17:42;14.23;;;2.77;;
6999;SDS011;3540;53.242;10.408;2024-01-15T01:20:08;14.43;;;2.80;;
6999;SDS011;3540;53.242;10.408;2024-01-15T01:22:35;8.33;;;2.07;;
6999;SDS011;3540;53.242;10.408;2024-01-15T01:25:01;8.73;;;2.20;;
6999;SDS011;3540;53.242;10.408;2024-01-15T01:27:26;12.17;;;2.37;;
6999;SDS011;3540;53.242;10.408;2024-01-15T01:29:52;12.73;;;1.97;;
6999;SDS011;3540;53.242;10.408;2024-01-15T01:32:18;11.40;;;2.43;;
6999;SDS011;3540;53.242;10.408;2024-01-15T01:34:43;11.10;;;2.40;;
6999;SDS011;3540;53.242;10.408;2024-01-15T01:37:12;10.90;;;2.50;;
6999;SDS011;3540;53.242;10.408;2024-01-15T01:39:38;10.80;;;2.37;;
6999;SDS011;3540;53.242;10.408;2024-01-15T01:42:04;7.57;;;2.20;;
6999;SDS011;3540;53.242;10.408;2024-01-15T01:44:30;11.03;;;2.50;;
6999;SDS011;3540;53.242;10.408;2024-01-15T01:46:56;12.87;;;2.43;;
6999;SDS011;3540;53.242;10.408;2024-01-15T01:49:22;11.13;;;2.47;;
6999;SDS011;3540;53.242;10.408;2024-01-15T01:51:49;10.83;;;2.07;;
6999;SDS011;3540;53.242;10.408;2024-01-15T01:54:15;13.17;;;2.60;;
6999;SDS011;3540;53.242;10.408;2024-01-15T01:56:42;9.33;;;2.47;;
6999;SDS011;3540;53.242;10.408;2024-01-15T01:59:08;9.80;;;2.33;;
6999;SDS011;3540;53.242;10.408;2024-01-15T02:01:36;9.93;;;2.33;;
6999;SDS011;3540;53.242;10.408;2024-01-15T02:04:02;9.93;;;2.40;;
6999;SDS011;3540;53.242;10.408;2024-01-15T02:06:29;12.40;;;2.53;;
6999;SDS011;3540;53.242;10.408;2024-01-15T02:08:55;11.60;;;2.33;;
6999;SDS011;3540;53.242;10.408;2024-01-15T02:11:20;10.93;;;2.43;;
6999;SDS011;3540;53.242;10.408;2024-01-15T02:13:46;14.80;;;2.83;;
6999;SDS011;3540;53.242;10.408;2024-01-15T02:16:12;8.20;;;2.17;;
6999;SDS011;3540;53.242;10.408;2024-01-15T02:18:41;10.50;;;2.53;;
6999;SDS011;3540;53.242;10.408;2024-01-15T02:21:08;8.00;;;2.20;;
6999;SDS011;3540;53.242;10.408;2024-01-15T02:23:34;9.13;;;2.20;;
6999;SDS011;3540;53.242;10.408;2024-01-15T02:25:59;9.87;;;2.30;;
6999;SDS011;3540;53.242;10.408;2024-01-15T02:28:26;9.07;;;2.20;;
6999;SDS011;3540;53.242;10.408;2024-01-15T02:30:51;7.97;;;2.33;;
6999;SDS011;3540;53.242;10.408;2024-01-15T02:33:17;16.50;;;2.57;;
6999;SDS011;3540;53.242;10.408;2024-01-15T02:35:43;7.83;;;2.17;;
6999;SDS011;3540;53.242;10.408;2024-01-15T02:38:08;5.50;;;2.17;;
6999;SDS011;3540;53.242;10.408;2024-01-15T02:40:34;7.20;;;2.10;;
6999;SDS011;3540;53.242;10.408;2024-01-15T02:43:00;7.73;;;2.47;;
6999;SDS011;3540;53.242;10.408;2024-01-15T02:45:26;9.33;;;2.77;;
6999;SDS011;3540;53.242;10.408;2024-01-15T02:47:52;12.93;;;3.10;;
6999;SDS011;3540;53.242;10.408;2024-01-15T02:50:18;7.30;;;2.63;;
6999;SDS011;3540;53.242;10.408;2024-01-15T02:52:43;12.93;;;3.43;;
6999;SDS011;3540;53.242;10.408;2024-01-15T02:55:09;10.07;;;3.10;;
6999;SDS011;3540;53.242;10.408;2024-01-15T02:57:35;11.80;;;3.30;;
6999;SDS011;3540;53.242;10.408;2024-01-15T03:00:00;11.20;;;3.50;;
6999;SDS011;3540;53.242;10.408;2024-01-15T03:02:26;8.93;;;2.97;;
6999;SDS011;3540;53.242;10.408;2024-01-15T03:04:51;12.43;;;3.33;;
6999;SDS011;3540;53.242;10.408;2024-01-15T03:07:17;11.53;;;3.50;;
6999;SDS011;3540;53.242;10.408;2024-01-15T03:09:43;10.33;;;2.60;;
6999;SDS011;3540;53.242;10.408;2024-01-15T03:12:09;10.00;;;3.50;;
6999;SDS011;3540;53.242;10.408;2024-01-15T03:14:35;6.50;;;2.80;;
6999;SDS011;3540;53.242;10.408;2024-01-15T03:17:00;7.40;;;3.00;;
6999;SDS011;3540;53.242;10.408;2024-01-15T03:19:26;8.43;;;2.67;;
6999;SDS011;3540;53.242;10.408;2024-01-15T03:21:52;10.63;;;3.60;;
6999;SDS011;3540;53.242;10.408;2024-01-15T03:24:18;12.80;;;3.00;;
6999;SDS011;3540;53.242;10.408;2024-01-15T03:26:43;9.57;;;3.10;;
6999;SDS011;3540;53.242;10.408;2024-01-15T03:29:09;9.20;;;3.33;;
6999;SDS011;3540;53.242;10.408;2024-01-15T03:31:34;4.93;;;2.80;;
6999;SDS011;3540;53.242;10.408;2024-01-15T03:34:00;8.13;;;3.07;;
6999;SDS011;3540;53.242;10.408;2024-01-15T03:36:26;8.53;;;2.93;;
6999;SDS011;3540;53.242;10.408;2024-01-15T03:38:51;9.50;;;3.60;;
6999;SDS011;3540;53.242;10.408;2024-01-15T03:41:17;9.30;;;3.47;;
6999;SDS011;3540;53.242;10.408;2024-01-15T03:43:43;10.20;;;3.40;;
6999;SDS011;3540;53.242;10.408;2024-01-15T03:46:08;11.13;;;3.27;;
6999;SDS011;3540;53.242;10.408;2024-01-15T03:48:34;9.17;;;2.90;;
6999;SDS011;3540;53.242;10.408;2024-01-15T03:51:00;14.67;;;3.23;;
6999;SDS011;3540;53.242;10.408;2024-01-15T03:53:25;13.13;;;2.90;;
6999;SDS011;3540;53.242;10.408;2024-01-15T03:55:51;15.43;;;3.20;;
6999;SDS011;3540;53.242;10.408;2024-01-15T03:58:17;12.07;;;2.70;;
6999;SDS011;3540;53.242;10.408;2024-01-15T04:00:42;9.57;;;2.50;;
6999;SDS011;3540;53.242;10.408;2024-01-15T04:03:08;13.10;;;3.10;;
6999;SDS011;3540;53.242;10.408;2024-01-15T04:05:34;12.83;;;3.20;;
6999;SDS011;3540;53.242;10.408;2024-01-15T04:08:00;13.47;;;2.93;;
6999;SDS011;3540;53.242;10.408;2024-01-15T04:10:26;12.40;;;2.90;;
6999;SDS011;3540;53.242;10.408;2024-01-15T04:12:51;18.60;;;2.90;;
6999;SDS011;3540;53.242;10.408;2024-01-15T04:15:17;14.40;;;2.37;;
6999;SDS011;3540;53.242;10.408;2024-01-15T04:17:42;15.00;;;2.77;;
6999;SDS011;3540;53.242;10.408;2024-01-15T04:20:08;15.07;;;2.60;;
6999;SDS011;3540;53.242;10.408;2024-01-15T04:22:35;13.77;;;2.90;;
6999;SDS011;3540;53.242;10.408;2024-01-15T04:25:01;15.97;;;3.23;;
6999;SDS011;3540;53.242;10.408;2024-01-15T04:27:27;15.03;;;2.90;;
6999;SDS011;3540;53.242;10.408;2024-01-15T04:29:52;24.00;;;3.97;;
6999;SDS011;3540;53.242;10.408;2024-01-15T04:32:18;18.43;;;3.03;;
6999;SDS011;3540;53.242;10.408;2024-01-15T04:34:44;17.87;;;3.97;;
6999;SDS011;3540;53.242;10.408;2024-01-15T04:37:10;21.53;;;3.30;;
6999;SDS011;3540;53.242;10.408;2024-01-15T04:39:35;22.53;;;3.70;;
6999;SDS011;3540;53.242;10.408;2024-01-15T04:42:01;16.77;;;2.80;;
6999;SDS011;3540;53.242;10.408;2024-01-15T04:44:27;18.30;;;2.87;;
6999;SDS011;3540;53.242;10.408;2024-01-15T04:46:52;15.33;;;2.97;;
6999;SDS011;3540;53.242;10.408;2024-01-15T04:49:18;17.77;;;2.90;;
6999;SDS011;3540;53.242;10.408;2024-01-15T04:51:44;21.50;;;3.40;;
6999;SDS011;3540;53.242;10.408;2024-01-15T04:54:09;18.27;;;3.73;;
6999;SDS011;3540;53.242;10.408;2024-01-15T04:56:36;18.20;;;2.77;;
6999;SDS011;3540;53.242;10.408;2024-01-15T04:59:02;21.97;;;2.83;;
6999;SDS011;3540;53.242;10.408;2024-01-15T05:01:31;17.43;;;3.47;;
6999;SDS011;3540;53.242;10.408;2024-01-15T05:03:57;14.70;;;3.07;;
6999;SDS011;3540;53.242;10.408;2024-01-15T05:06:23;16.07;;;4.17;;
6999;SDS011;3540;53.242;10.408;2024-01-15T05:08:48;19.27;;;4.03;;
6999;SDS011;3540;53.242;10.408;2024-01-15T05:11:14;12.13;;;2.93;;
6999;SDS011;3540;53.242;10.408;2024-01-15T05:13:40;18.33;;;3.47;;
6999;SDS011;3540;53.242;10.408;2024-01-15T05:16:06;20.87;;;3.50;;
6999;SDS011;3540;53.242;10.408;2024-01-15T05:18:32;24.00;;;3.97;;
6999;SDS011;3540;53.242;10.408;2024-01-15T05:20:58;25.83;;;4.20;;
6999;SDS011;3540;53.242;10.408;2024-01-15T05:23:23;19.60;;;3.60;;
6999;SDS011;3540;53.242;10.408;2024-01-15T05:25:49;23.13;;;4.00;;
6999;SDS011;3540;53.242;10.408;2024-01-15T05:28:15;21.13;;;3.47;;
6999;SDS011;3540;53.242;10.408;2024-01-15T05:30:41;16.67;;;3.87;;
6999;SDS011;3540;53.242;10.408;2024-01-15T05:33:07;20.40;;;3.87;;
6999;SDS011;3540;53.242;10.408;2024-01-15T05:35:33;20.40;;;4.00;;
6999;SDS011;3540;53.242;10.408;2024-01-15T05:37:59;19.10;;;3.97;;
6999;SDS011;3540;53.242;10.408;2024-01-15T05:40:25;16.17;;;3.90;;
6999;SDS011;3540;53.242;10.408;2024-01-15T05:42:50;15.90;;;3.63;;
6999;SDS011;3540;53.242;10.408;2024-01-15T05:45:16;17.40;;;4.40;;
6999;SDS011;3540;53.242;10.408;2024-01-15T05:47:42;25.40;;;4.23;;
6999;SDS011;3540;53.242;10.408;2024-01-15T05:50:09;23.97;;;4.53;;
6999;SDS011;3540;53.242;10.408;2024-01-15T05:52:35;20.40;;;3.87;;
6999;SDS011;3540;53.242;10.408;2024-01-15T05:55:01;14.17;;;4.03;;
6999;SDS011;3540;53.242;10.408;2024-01-15T05:57:27;23.90;;;4.23;;
6999;SDS011;3540;53.242;10.408;2024-01-15T05:59:53;24.83;;;4.40;;
6999;SDS011;3540;53.242;10.408;2024-01-15T06:02:19;18.53;;;4.43;;
6999;SDS011;3540;53.242;10.408;2024-01-15T06:04:44;16.17;;;4.60;;
6999;SDS011;3540;53.242;10.408;2024-01-15T06:07:10;16.50;;;3.73;;
6999;SDS011;3540;53.242;10.408;2024-01-15T06:09:36;18.03;;;3.90;;
6999;SDS011;3540;53.242;10.408;2024-01-15T06:12:02;17.83;;;4.30;;
6999;SDS011;3540;53.242;10.408;2024-01-15T06:14:27;19.40;;;3.60;;
6999;SDS011;3540;53.242;10.408;2024-01-15T06:16:53;18.43;;;4.43;;
6999;SDS011;3540;53.242;10.408;2024-01-15T06:19:18;19.70;;;4.40;;
6999;SDS011;3540;53.242;10.408;2024-01-15T06:21:44;13.63;;;4.30;;
6999;SDS011;3540;53.242;10.408;2024-01-15T06:24:10;14.87;;;4.03;;
6999;SDS011;3540;53.242;10.408;2024-01-15T06:26:35;20.30;;;4.63;;
6999;SDS011;3540;53.242;10.408;2024-01-15T06:29:01;14.93;;;4.30;;
6999;SDS011;3540;53.242;10.408;2024-01-15T06:31:28;18.17;;;4.70;;
6999;SDS011;3540;53.242;10.408;2024-01-15T06:33:54;18.20;;;4.20;;
6999;SDS011;3540;53.242;10.408;2024-01-15T06:36:20;20.30;;;4.60;;
6999;SDS011;3540;53.242;10.408;2024-01-15T06:38:46;17.87;;;3.60;;
6999;SDS011;3540;53.242;10.408;2024-01-15T06:41:12;13.07;;;3.40;;
6999;SDS011;3540;53.242;10.408;2024-01-15T06:43:38;18.00;;;4.00;;
6999;SDS011;3540;53.242;10.408;2024-01-15T06:46:04;17.07;;;3.77;;
6999;SDS011;3540;53.242;10.408;2024-01-15T06:48:29;18.73;;;3.53;;
6999;SDS011;3540;53.242;10.408;2024-01-15T06:50:55;17.90;;;3.60;;
6999;SDS011;3540;53.242;10.408;2024-01-15T06:53:21;19.60;;;3.47;;
6999;SDS011;3540;53.242;10.408;2024-01-15T06:55:46;16.73;;;2.90;;
6999;SDS011;3540;53.242;10.408;2024-01-15T06:58:14;12.97;;;3.13;;
6999;SDS011;3540;53.242;10.408;2024-01-15T07:00:39;16.20;;;2.83;;
6999;SDS011;3540;53.242;10.408;2024-01-15T07:03:05;16.27;;;3.17;;
6999;SDS011;3540;53.242;10.408;2024-01-15T07:05:31;14.40;;;2.87;;
6999;SDS011;3540;53.242;10.408;2024-01-15T07:07:57;12.47;;;3.00;;
6999;SDS011;3540;53.242;10.408;2024-01-15T07:10:22;14.50;;;2.93;;
6999;SDS011;3540;53.242;10.408;2024-01-15T07:12:48;15.50;;;2.87;;
6999;SDS011;3540;53.242;10.408;2024-01-15T07:15:14;14.00;;;3.20;;
6999;SDS011;3540;53.242;10.408;2024-01-15T07:17:40;13.70;;;2.97;;
6999;SDS011;3540;53.242;10.408;2024-01-15T07:20:07;12.60;;;2.87;;
6999;SDS011;3540;53.242;10.408;2024-01-15T07:22:37;12.90;;;2.57;;
6999;SDS011;3540;53.242;10.408;2024-01-15T07:25:02;9.13;;;2.70;;
6999;SDS011;3540;53.242;10.408;2024-01-15T07:27:29;15.83;;;3.10;;
6999;SDS011;3540;53.242;10.408;2024-01-15T07:29:58;8.03;;;2.67;;
6999;SDS011;3540;53.242;10.408;2024-01-15T07:32:24;16.17;;;3.53;;
6999;SDS011;3540;53.242;10.408;2024-01-15T07:34:49;6.97;;;2.33;;
6999;SDS011;3540;53.242;10.408;2024-01-15T07:37:15;9.97;;;2.67;;
6999;SDS011;3540;53.242;10.408;2024-01-15T07:39:41;11.17;;;2.50;;
6999;SDS011;3540;53.242;10.408;2024-01-15T07:42:06;8.93;;;2.47;;
6999;SDS011;3540;53.242;10.408;2024-01-15T07:44:32;12.47;;;2.83;;
6999;SDS011;3540;53.242;10.408;2024-01-15T07:46:58;11.80;;;2.80;;
6999;SDS011;3540;53.242;10.408;2024-01-15T07:49:24;9.47;;;2.60;;
6999;SDS011;3540;53.242;10.408;2024-01-15T07:51:50;7.63;;;2.50;;
6999;SDS011;3540;53.242;10.408;2024-01-15T07:54:16;9.60;;;2.30;;
6999;SDS011;3540;53.242;10.408;2024-01-15T07:59:23;11.27;;;2.17;;
6999;SDS011;3540;53.242;10.408;2024-01-15T08:01:49;9.80;;;2.17;;
6999;SDS011;3540;53.242;10.408;2024-01-15T08:04:15;10.40;;;2.30;;
6999;SDS011;3540;53.242;10.408;2024-01-15T08:06:41;8.30;;;2.07;;
6999;SDS011;3540;53.242;10.408;2024-01-15T08:09:06;9.03;;;2.37;;
6999;SDS011;3540;53.242;10.408;2024-01-15T08:11:33;13.47;;;2.93;;
6999;SDS011;3540;53.242;10.408;2024-01-15T08:13:59;6.57;;;2.13;;
6999;SDS011;3540;53.242;10.408;2024-01-15T08:16:25;6.60;;;2.13;;
6999;SDS011;3540;53.242;10.408;2024-01-15T08:18:52;9.07;;;2.00;;
6999;SDS011;3540;53.242;10.408;2024-01-15T08:21:18;8.20;;;2.00;;
6999;SDS011;3540;53.242;10.408;2024-01-15T08:23:44;5.13;;;1.80;;
6999;SDS011;3540;53.242;10.408;2024-01-15T08:26:10;6.10;;;1.70;;
6999;SDS011;3540;53.242;10.408;2024-01-15T08:28:36;7.00;;;1.70;;
6999;SDS011;3540;53.242;10.408;2024-01-15T08:31:01;4.33;;;1.30;;
6999;SDS011;3540;53.242;10.408;2024-01-15T08:33:28;4.33;;;1.37;;
6999;SDS011;3540;53.242;10.408;2024-01-15T08:35:54;6.73;;;1.70;;
6999;SDS011;3540;53.242;10.408;2024-01-15T08:38:20;5.80;;;1.13;;
6999;SDS011;3540;53.242;10.408;2024-01-15T08:40:45;4.97;;;1.30;;
6999;SDS011;3540;53.242;10.408;2024-01-15T08:43:11;2.73;;;1.20;;
6999;SDS011;3540;53.242;10.408;2024-01-15T08:45:37;2.97;;;1.20;;
6999;SDS011;3540;53.242;10.408;2024-01-15T08:48:03;1.43;;;0.97;;
6999;SDS011;3540;53.242;10.408;2024-01-15T08:50:29;5.93;;;1.30;;
6999;SDS011;3540;53.242;10.408;2024-01-15T08:52:57;1.87;;;0.90;;
6999;SDS011;3540;53.242;10.408;2024-01-15T08:55:22;1.00;;;0.90;;
6999;SDS011;3540;53.242;10.408;2024-01-15T08:57:48;1.53;;;1.07;;
6999;SDS011;3540;53.242;10.408;2024-01-15T09:00:14;2.50;;;1.03;;
6999;SDS011;3540;53.242;10.408;2024-01-15T09:02:40;1.97;;;1.37;;
6999;SDS011;3540;53.242;10.408;2024-01-15T09:05:07;2.23;;;1.10;;
6999;SDS011;3540;53.242;10.408;2024-01-15T09:07:33;1.87;;;1.30;;
6999;SDS011;3540;53.242;10.408;2024-01-15T09:09:58;1.87;;;1.10;;
6999;SDS011;3540;53.242;10.408;2024-01-15T09:12:25;2.33;;;1.37;;
6999;SDS011;3540;53.242;10.408;2024-01-15T09:14:51;2.37;;;1.30;;
6999;SDS011;3540;53.242;10.408;2024-01-15T09:17:17;2.87;;;1.30;;
6999;SDS011;3540;53.242;10.408;2024-01-15T09:19:43;3.33;;;1.40;;
6999;SDS011;3540;53.242;10.408;2024-01-15T09:22:09;2.70;;;1.40;;
6999;SDS011;3540;53.242;10.408;2024-01-15T09:24:35;3.33;;;1.30;;
6999;SDS011;3540;53.242;10.408;2024-01-15T09:27:00;1.87;;;1.40;;
6999;SDS011;3540;53.242;10.408;2024-01-15T09:29:27;1.37;;;1.27;;
6999;SDS011;3540;53.242;10.408;2024-01-15T09:31:53;1.80;;;1.30;;
6999;SDS011;3540;53.242;10.408;2024-01-15T09:34:18;1.20;;;1.10;;
6999;SDS011;3540;53.242;10.408;2024-01-15T09:36:44;1.40;;;1.30;;
6999;SDS011;3540;53.242;10.408;2024-01-15T09:39:09;2.23;;;1.50;;
6999;SDS011;3540;53.242;10.408;2024-01-15T09:41:36;3.00;;;1.20;;
6999;SDS011;3540;53.242;10.408;2024-01-15T09:44:05;3.50;;;1.57;;
6999;SDS011;3540;53.242;10.408;2024-01-15T09:46:33;3.83;;;1.67;;
6999;SDS011;3540;53.242;10.408;2024-01-15T09:49:00;2.63;;;1.10;;
6999;SDS011;3540;53.242;10.408;2024-01-15T09:51:27;2.73;;;1.20;;
6999;SDS011;3540;53.242;10.408;2024-01-15T09:53:55;3.20;;;1.17;;
6999;SDS011;3540;53.242;10.408;2024-01-15T09:56:22;3.30;;;1.33;;
6999;SDS011;3540;53.242;10.408;2024-01-15T09:58:48;3.90;;;1.10;;
6999;SDS011;3540;53.242;10.408;2024-01-15T10:01:16;2.47;;;1.10;;
6999;SDS011;3540;53.242;10.408;2024-01-15T10:03:42;5.73;;;1.10;;
6999;SDS011;3540;53.242;10.408;2024-01-15T10:06:08;5.87;;;1.17;;
6999;SDS011;3540;53.242;10.408;2024-01-15T10:08:36;2.80;;;1.60;;
6999;SDS011;3540;53.242;10.408;2024-01-15T10:11:02;2.60;;;1.13;;
6999;SDS011;3540;53.242;10.408;2024-01-15T10:13:30;5.33;;;1.60;;
6999;SDS011;3540;53.242;10.408;2024-01-15T10:15:56;6.57;;;1.50;;
6999;SDS011;3540;53.242;10.408;2024-01-15T10:18:23;3.17;;;1.23;;
6999;SDS011;3540;53.242;10.408;2024-01-15T10:20:48;4.57;;;1.57;;
6999;SDS011;3540;53.242;10.408;2024-01-15T10:23:14;4.90;;;1.83;;
6999;SDS011;3540;53.242;10.408;2024-01-15T10:25:41;4.83;;;1.70;;
6999;SDS011;3540;53.242;10.408;2024-01-15T10:28:07;6.23;;;2.03;;
6999;SDS011;3540;53.242;10.408;2024-01-15T10:30:34;6.40;;;2.00;;
6999;SDS011;3540;53.242;10.408;2024-01-15T10:33:01;2.17;;;1.47;;
6999;SDS011;3540;53.242;10.408;2024-01-15T10:35:29;4.93;;;2.07;;
6999;SDS011;3540;53.242;10.408;2024-01-15T10:38:01;3.53;;;1.80;;
6999;SDS011;3540;53.242;10.408;2024-01-15T10:40:28;6.00;;;2.23;;
6999;SDS011;3540;53.242;10.408;2024-01-15T10:42:54;5.23;;;2.67;;
6999;SDS011;3540;53.242;10.408;2024-01-15T10:45:20;3.73;;;2.60;;
6999;SDS011;3540;53.242;10.408;2024-01-15T10:47:45;4.43;;;2.33;;
6999;SDS011;3540;53.242;10.408;2024-01-15T10:50:11;4.37;;;2.70;;
6999;SDS011;3540;53.242;10.408;2024-01-15T10:52:38;4.30;;;2.70;;
6999;SDS011;3540;53.242;10.408;2024-01-15T10:55:06;8.37;;;3.07;;
6999;SDS011;3540;53.242;10.408;2024-01-15T10:57:34;2.93;;;2.70;;
6999;SDS011;3540;53.242;10.408;2024-01-15T11:00:06;3.53;;;3.03;;
6999;SDS011;3540;53.242;10.408;2024-01-15T11:02:35;5.60;;;3.00;;
6999;SDS011;3540;53.242;10.408;2024-01-15T11:05:01;3.27;;;2.77;;
6999;SDS011;3540;53.242;10.408;2024-01-15T11:07:27;3.97;;;2.87;;
6999;SDS011;3540;53.242;10.408;2024-01-15T11:09:55;3.53;;;2.70;;
6999;SDS011;3540;53.242;10.408;2024-01-15T11:12:23;4.60;;;2.90;;
6999;SDS011;3540;53.242;10.408;2024-01-15T11:14:50;3.97;;;3.10;;
6999;SDS011;3540;53.242;10.408;2024-01-15T11:17:16;3.97;;;2.70;;
6999;SDS011;3540;53.242;10.408;2024-01-15T11:19:46;3.87;;;3.13;;
6999;SDS011;3540;53.242;10.408;2024-01-15T11:24:57;3.10;;;2.63;;
6999;SDS011;3540;53.242;10.408;2024-01-15T11:30:09;3.20;;;2.60;;
6999;SDS011;3540;53.242;10.408;2024-01-15T11:32:36;3.33;;;2.53;;
6999;SDS011;3540;53.242;10.408;2024-01-15T11:35:02;3.47;;;2.60;;
6999;SDS011;3540;53.242;10.408;2024-01-15T11:37:29;5.80;;;2.80;;
6999;SDS011;3540;53.242;10.408;2024-01-15T11:40:17;4.73;;;3.13;;
6999;SDS011;3540;53.242;10.408;2024-01-15T11:42:47;5.83;;;3.80;;
6999;SDS011;3540;53.242;10.408;2024-01-15T11:45:15;7.57;;;3.40;;
6999;SDS011;3540;53.242;10.408;2024-01-15T11:50:44;4.73;;;4.00;;
6999;SDS011;3540;53.242;10.408;2024-01-15T11:55:53;5.87;;;3.87;;
6999;SDS011;3540;53.242;10.408;2024-01-15T11:58:23;6.37;;;3.60;;
6999;SDS011;3540;53.242;10.408;2024-01-15T12:00:50;7.20;;;3.60;;
6999;SDS011;3540;53.242;10.408;2024-01-15T12:03:16;7.63;;;3.60;;
6999;SDS011;3540;53.242;10.408;2024-01-15T12:05:42;6.40;;;3.70;;
6999;SDS011;3540;53.242;10.408;2024-01-15T12:08:08;6.00;;;3.43;;
6999;SDS011;3540;53.242;10.408;2024-01-15T12:10:36;7.00;;;3.30;;
6999;SDS011;3540;53.242;10.408;2024-01-15T12:13:15;5.53;;;2.97;;
6999;SDS011;3540;53.242;10.408;2024-01-15T12:15:43;5.43;;;2.60;;
6999;SDS011;3540;53.242;10.408;2024-01-15T12:18:11;8.03;;;2.63;;
6999;SDS011;3540;53.242;10.408;2024-01-15T12:20:37;5.10;;;2.17;;
6999;SDS011;3540;53.242;10.408;2024-01-15T12:23:04;5.77;;;2.40;;
6999;SDS011;3540;53.242;10.408;2024-01-15T12:25:30;3.63;;;2.37;;
6999;SDS011;3540;53.242;10.408;2024-01-15T12:27:57;5.37;;;1.97;;
6999;SDS011;3540;53.242;10.408;2024-01-15T12:30:25;4.97;;;1.93;;
6999;SDS011;3540;53.242;10.408;2024-01-15T12:32:54;4.93;;;2.60;;
6999;SDS011;3540;53.242;10.408;2024-01-15T12:35:20;3.10;;;1.80;;
6999;SDS011;3540;53.242;10.408;2024-01-15T12:37:47;4.27;;;1.90;;
6999;SDS011;3540;53.242;10.408;2024-01-15T12:40:13;1.93;;;1.70;;
6999;SDS011;3540;53.242;10.408;2024-01-15T12:42:39;2.17;;;1.90;;
6999;SDS011;3540;53.242;10.408;2024-01-15T12:45:06;2.43;;;2.23;;
6999;SDS011;3540;53.242;10.408;2024-01-15T12:47:33;2.83;;;2.47;;
6999;SDS011;3540;53.242;10.408;2024-01-15T12:49:59;2.17;;;1.97;;
6999;SDS011;3540;53.242;10.408;2024-01-15T12:52:26;4.23;;;2.50;;
6999;SDS011;3540;53.242;10.408;2024-01-15T12:54:53;2.93;;;2.40;;
6999;SDS011;3540;53.242;10.408;2024-01-15T12:57:18;4.57;;;2.50;;
6999;SDS011;3540;53.242;10.408;2024-01-15T12:59:44;3.53;;;2.87;;
6999;SDS011;3540;53.242;10.408;2024-01-15T13:02:11;3.13;;;2.47;;
6999;SDS011;3540;53.242;10.408;2024-01-15T13:04:37;3.60;;;2.27;;
6999;SDS011;3540;53.242;10.408;2024-01-15T13:07:03;2.40;;;2.03;;
6999;SDS011;3540;53.242;10.408;2024-01-15T13:09:30;3.00;;;1.90;;
6999;SDS011;3540;53.242;10.408;2024-01-15T13:11:55;2.90;;;1.70;;
6999;SDS011;3540;53.242;10.408;2024-01-15T13:14:21;2.37;;;1.70;;
6999;SDS011;3540;53.242;10.408;2024-01-15T13:16:46;2.73;;;1.73;;
6999;SDS011;3540;53.242;10.408;2024-01-15T13:19:12;2.50;;;1.53;;
6999;SDS011;3540;53.242;10.408;2024-01-15T13:21:41;2.37;;;1.40;;
6999;SDS011;3540;53.242;10.408;2024-01-15T13:24:07;1.87;;;1.30;;
6999;SDS011;3540;53.242;10.408;2024-01-15T13:26:33;4.57;;;1.50;;
6999;SDS011;3540;53.242;10.408;2024-01-15T13:29:08;2.53;;;1.23;;
6999;SDS011;3540;53.242;10.408;2024-01-15T13:31:33;1.93;;;1.37;;
6999;SDS011;3540;53.242;10.408;2024-01-15T13:33:59;1.27;;;1.17;;
6999;SDS011;3540;53.242;10.408;2024-01-15T13:36:25;2.03;;;1.30;;
6999;SDS011;3540;53.242;10.408;2024-01-15T13:38:52;1.30;;;1.20;;
6999;SDS011;3540;53.242;10.408;2024-01-15T13:41:19;1.70;;;1.37;;
6999;SDS011;3540;53.242;10.408;2024-01-15T13:43:49;2.60;;;2.07;;
6999;SDS011;3540;53.242;10.408;2024-01-15T13:46:15;2.80;;;1.83;;
6999;SDS011;3540;53.242;10.408;2024-01-15T13:48:42;3.27;;;1.90;;
6999;SDS011;3540;53.242;10.408;2024-01-15T13:51:08;3.93;;;1.70;;
6999;SDS011;3540;53.242;10.408;2024-01-15T13:53:34;2.60;;;1.63;;
6999;SDS011;3540;53.242;10.408;2024-01-15T13:56:00;4.40;;;1.93;;
6999;SDS011;3540;53.242;10.408;2024-01-15T13:58:25;3.73;;;2.20;;
6999;SDS011;3540;53.242;10.408;2024-01-15T14:00:51;3.00;;;1.67;;
6999;SDS011;3540;53.242;10.408;2024-01-15T14:03:17;4.00;;;2.00;;
6999;SDS011;3540;53.242;10.408;2024-01-15T14:05:44;2.90;;;2.10;;
6999;SDS011;3540;53.242;10.408;2024-01-15T14:08:10;3.20;;;1.90;;
6999;SDS011;3540;53.242;10.408;2024-01-15T14:10:35;1.80;;;1.50;;
6999;SDS011;3540;53.242;10.408;2024-01-15T14:13:02;2.13;;;1.77;;
6999;SDS011;3540;53.242;10.408;2024-01-15T14:15:28;2.77;;;1.90;;
6999;SDS011;3540;53.242;10.408;2024-01-15T14:17:54;2.27;;;1.80;;
6999;SDS011;3540;53.242;10.408;2024-01-15T14:20:20;4.07;;;1.77;;
6999;SDS011;3540;53.242;10.408;2024-01-15T14:22:45;3.33;;;1.50;;
6999;SDS011;3540;53.242;10.408;2024-01-15T14:25:11;3.27;;;1.50;;
6999;SDS011;3540;53.242;10.408;2024-01-15T14:27:37;1.47;;;1.37;;
6999;SDS011;3540;53.242;10.408;2024-01-15T14:30:03;2.77;;;1.60;;
6999;SDS011;3540;53.242;10.408;2024-01-15T14:32:30;1.90;;;1.70;;
6999;SDS011;3540;53.242;10.408;2024-01-15T14:34:56;1.97;;;1.50;;
6999;SDS011;3540;53.242;10.408;2024-01-15T14:37:22;1.87;;;1.70;;
6999;SDS011;3540;53.242;10.408;2024-01-15T14:39:47;2.63;;;1.80;;
6999;SDS011;3540;53.242;10.408;2024-01-15T14:42:13;2.43;;;1.80;;
6999;SDS011;3540;53.242;10.408;2024-01-15T14:44:39;2.10;;;1.90;;
6999;SDS011;3540;53.242;10.408;2024-01-15T14:47:06;1.70;;;1.60;;
6999;SDS011;3540;53.242;10.408;2024-01-15T14:49:32;1.77;;;1.63;;
6999;SDS011;3540;53.242;10.408;2024-01-15T14:51:58;2.30;;;1.90;;
6999;SDS011;3540;53.242;10.408;2024-01-15T14:54:24;3.07;;;1.73;;
6999;SDS011;3540;53.242;10.408;2024-01-15T14:56:50;2.90;;;1.73;;
6999;SDS011;3540;53.242;10.408;2024-01-15T14:59:16;2.57;;;1.87;;
6999;SDS011;3540;53.242;10.408;2024-01-15T15:01:42;2.50;;;1.80;;
6999;SDS011;3540;53.242;10.408;2024-01-15T15:04:08;3.47;;;1.90;;